createdAt,value
2023-02-06T00:02:43.102Z,6.18
2023-02-06T00:05:56.580Z,6.82
2023-02-06T00:09:05.169Z,5.30
2023-02-06T00:12:10.420Z,6.60
2023-02-06T00:15:16.079Z,6.28
2023-02-06T00:18:21.358Z,6.22
2023-02-06T00:21:27.091Z,5.53
2023-02-06T00:24:35.161Z,6.22
2023-02-06T00:27:40.257Z,5.43
2023-02-06T00:30:48.693Z,5.82
2023-02-06T00:36:59.094Z,6.38
2023-02-06T00:40:08.431Z,6.40
2023-02-06T00:43:13.881Z,6.05
2023-02-06T00:46:19.627Z,5.70
2023-02-06T00:49:25.520Z,5.82
2023-02-06T00:52:31.187Z,6.28
2023-02-06T00:55:39.272Z,5.88
2023-02-06T00:58:44.353Z,5.30
2023-02-06T01:01:49.873Z,6.03
2023-02-06T01:04:55.309Z,5.78
2023-02-06T01:08:02.786Z,5.47
2023-02-06T01:11:15.792Z,5.45
2023-02-06T01:14:21.234Z,6.40
2023-02-06T01:17:27.230Z,5.57
2023-02-06T01:20:32.823Z,5.65
2023-02-06T01:23:38.241Z,4.47
2023-02-06T01:26:46.449Z,4.88
2023-02-06T01:29:51.777Z,5.38
2023-02-06T01:32:57.599Z,5.88
2023-02-06T01:36:03.054Z,4.93
2023-02-06T01:39:08.839Z,4.88
2023-02-06T01:42:16.657Z,5.45
2023-02-06T01:45:36.904Z,5.05
2023-02-06T01:48:44.633Z,4.80
2023-02-06T01:51:50.940Z,5.40
2023-02-06T01:54:58.649Z,5.28
2023-02-06T01:58:07.811Z,4.93
2023-02-06T02:01:14.346Z,5.25
2023-02-06T02:04:21.488Z,5.20
2023-02-06T02:07:28.600Z,5.63
2023-02-06T02:10:35.092Z,3.92
2023-02-06T02:13:43.126Z,4.80
2023-02-06T02:16:56.540Z,5.20
2023-02-06T02:20:16.708Z,4.97
2023-02-06T02:23:29.050Z,5.38
2023-02-06T02:26:49.931Z,5.10
2023-02-06T02:30:12.994Z,4.90
2023-02-06T02:33:42.359Z,4.10
2023-02-06T02:36:52.860Z,4.30
2023-02-06T02:40:07.026Z,4.60
2023-02-06T02:43:17.556Z,4.85
2023-02-06T02:46:25.983Z,3.92
2023-02-06T02:49:32.520Z,4.80
2023-02-06T02:52:40.629Z,4.05
2023-02-06T02:58:54.298Z,4.72
2023-02-06T03:02:01.711Z,5.13
2023-02-06T03:05:09.790Z,5.47
2023-02-06T03:08:24.549Z,4.35
2023-02-06T03:11:30.801Z,4.43
2023-02-06T03:14:37.954Z,4.80
2023-02-06T03:17:46.924Z,4.55
2023-02-06T03:20:53.242Z,5.50
2023-02-06T03:24:05.122Z,4.40
2023-02-06T03:27:13.125Z,5.03
2023-02-06T03:30:19.772Z,4.72
2023-02-06T03:33:28.704Z,5.00
2023-02-06T03:36:34.019Z,5.72
2023-02-06T03:39:42.716Z,5.15
2023-02-06T03:42:53.769Z,5.78
2023-02-06T03:46:01.341Z,4.32
2023-02-06T03:49:09.507Z,4.90
2023-02-06T03:52:16.833Z,5.07
2023-02-06T03:55:26.499Z,5.30
2023-02-06T03:58:32.661Z,4.85
2023-02-06T04:01:38.310Z,4.25
2023-02-06T04:04:45.218Z,4.63
2023-02-06T04:07:50.446Z,5.05
2023-02-06T04:10:58.456Z,5.15
2023-02-06T04:14:04.238Z,4.35
2023-02-06T04:17:09.634Z,4.03
2023-02-06T04:20:15.756Z,4.07
2023-02-06T04:23:22.013Z,3.95
2023-02-06T04:26:30.068Z,4.43
2023-02-06T04:29:35.661Z,4.07
2023-02-06T04:32:41.120Z,3.83
2023-02-06T04:35:46.326Z,4.90
2023-02-06T04:38:51.839Z,3.85
2023-02-06T04:42:00.123Z,3.75
2023-02-06T04:45:05.877Z,3.83
2023-02-06T04:48:11.096Z,3.78
2023-02-06T04:51:16.532Z,4.05
2023-02-06T04:54:22.093Z,3.35
2023-02-06T04:57:30.336Z,3.55
2023-02-06T05:03:42.368Z,2.72
2023-02-06T05:06:48.005Z,3.53
2023-02-06T05:09:53.457Z,3.00
2023-02-06T05:13:01.692Z,3.63
2023-02-06T05:16:10.863Z,3.60
2023-02-06T05:19:16.406Z,3.53
2023-02-06T05:22:21.560Z,3.10
2023-02-06T05:25:27.250Z,3.35
2023-02-06T05:28:36.576Z,4.00
2023-02-06T05:31:42.296Z,3.72
2023-02-06T05:34:47.551Z,3.40
2023-02-06T05:37:52.930Z,4.22
2023-02-06T05:40:58.078Z,3.33
2023-02-06T05:44:06.416Z,4.00
2023-02-06T05:47:11.647Z,4.80
2023-02-06T05:50:17.510Z,3.92
2023-02-06T05:53:22.536Z,3.50
2023-02-06T05:56:28.408Z,4.35
2023-02-06T05:59:36.328Z,4.20
2023-02-06T06:02:42.081Z,4.43
2023-02-06T06:05:47.965Z,4.47
2023-02-06T06:08:53.799Z,3.88
2023-02-06T06:11:58.903Z,4.15
2023-02-06T06:15:06.907Z,4.85
2023-02-06T06:18:12.486Z,5.07
2023-02-06T06:21:17.581Z,4.30
2023-02-06T06:24:23.505Z,5.40
2023-02-06T06:27:29.492Z,4.30
2023-02-06T06:30:37.811Z,4.30
2023-02-06T06:33:43.226Z,4.93
2023-02-06T06:36:48.773Z,4.45
2023-02-06T06:39:54.602Z,4.22
2023-02-06T06:43:00.002Z,3.55
2023-02-06T06:46:08.307Z,4.35
2023-02-06T06:49:13.861Z,4.53
2023-02-06T06:52:24.965Z,4.53
2023-02-06T06:55:31.086Z,5.78
2023-02-06T06:58:37.187Z,5.30
2023-02-06T07:01:45.031Z,5.00
2023-02-06T07:04:50.283Z,5.07
2023-02-06T07:07:55.696Z,5.13
2023-02-06T07:11:01.670Z,4.85
2023-02-06T07:14:06.822Z,4.82
2023-02-06T07:17:14.645Z,5.32
2023-02-06T07:20:20.539Z,4.70
2023-02-06T07:23:25.628Z,4.55
2023-02-06T07:26:30.657Z,5.30
2023-02-06T07:29:36.469Z,4.50
2023-02-06T07:32:44.273Z,4.82
2023-02-06T07:35:50.383Z,4.60
2023-02-06T07:38:56.012Z,4.95
2023-02-06T07:42:01.754Z,4.43
2023-02-06T07:45:20.773Z,4.72
2023-02-06T07:48:28.866Z,5.18
2023-02-06T07:54:39.668Z,5.43
2023-02-06T07:57:45.586Z,5.10
2023-02-06T08:00:51.043Z,5.90
2023-02-06T08:03:59.156Z,5.53
2023-02-06T08:10:09.865Z,4.70
2023-02-06T08:13:15.218Z,4.68
2023-02-06T08:16:21.785Z,4.75
2023-02-06T08:19:29.922Z,5.55
2023-02-06T08:22:35.487Z,4.68
2023-02-06T08:25:41.107Z,4.43
2023-02-06T08:28:47.418Z,4.57
2023-02-06T08:31:53.342Z,5.50
2023-02-06T08:35:01.561Z,4.82
2023-02-06T08:38:07.282Z,6.03
2023-02-06T08:41:18.453Z,4.70
2023-02-06T08:44:23.876Z,4.75
2023-02-06T08:47:29.289Z,4.95
2023-02-06T08:50:37.411Z,5.07
2023-02-06T08:56:47.902Z,4.55
2023-02-06T08:59:54.200Z,4.75
2023-02-06T09:02:59.713Z,4.57
2023-02-06T09:06:10.267Z,4.97
2023-02-06T09:09:16.313Z,5.25
2023-02-06T09:12:21.958Z,4.80
2023-02-06T09:15:27.247Z,5.45
2023-02-06T09:18:33.031Z,4.82
2023-02-06T09:21:41.047Z,6.30
2023-02-06T09:24:46.739Z,6.10
2023-02-06T09:27:51.982Z,4.82
2023-02-06T09:30:57.799Z,4.60
2023-02-06T09:34:03.274Z,5.07
2023-02-06T09:37:11.438Z,7.03
2023-02-06T09:43:22.060Z,5.35
2023-02-06T09:46:29.053Z,4.53
2023-02-06T09:49:39.543Z,4.90
2023-02-06T09:52:55.045Z,4.88
2023-02-06T09:56:03.886Z,4.85
2023-02-06T09:59:13.012Z,3.97
2023-02-06T10:02:26.040Z,5.38
2023-02-06T10:26:12.804Z,4.97
2023-02-06T10:29:22.745Z,5.80
2023-02-06T10:32:33.091Z,4.70
2023-02-06T10:35:44.759Z,5.10
2023-02-06T10:38:59.294Z,4.68
2023-02-06T10:42:10.855Z,4.55
2023-02-06T10:45:21.029Z,4.50
2023-02-06T10:48:31.873Z,4.82
2023-02-06T10:51:39.232Z,4.50
2023-02-06T10:54:47.909Z,4.53
2023-02-06T10:58:01.201Z,4.47
2023-02-06T11:01:23.683Z,4.93
2023-02-06T11:04:33.216Z,5.43
2023-02-06T11:07:41.687Z,4.53
2023-02-06T11:13:56.768Z,5.47
2023-02-06T11:17:03.083Z,5.07
2023-02-06T11:20:20.428Z,4.68
2023-02-06T11:23:26.917Z,4.53
2023-02-06T11:26:32.539Z,4.63
2023-02-06T11:29:46.440Z,5.10
2023-02-06T11:33:03.817Z,5.45
2023-02-06T11:39:24.630Z,5.00
2023-02-06T11:42:30.262Z,5.57
2023-02-06T11:45:38.903Z,4.95
2023-02-06T11:48:45.562Z,5.40
2023-02-06T11:51:52.620Z,4.68
2023-02-06T11:55:02.578Z,5.18
2023-02-06T11:58:10.696Z,5.63
2023-02-06T12:01:23.976Z,5.70
2023-02-06T12:04:31.130Z,5.05
2023-02-06T12:07:39.356Z,5.53
2023-02-06T12:10:52.616Z,5.60
2023-02-06T12:13:59.526Z,5.38
2023-02-06T12:17:08.242Z,5.50
2023-02-06T12:20:16.473Z,6.00
2023-02-06T12:23:25.547Z,5.47
2023-02-06T12:26:32.464Z,5.15
2023-02-06T12:29:39.327Z,6.45
2023-02-06T12:32:50.593Z,5.13
2023-02-06T12:35:59.831Z,4.85
2023-02-06T12:39:06.118Z,4.80
2023-02-06T12:42:24.463Z,5.57
2023-02-06T12:45:36.250Z,4.78
2023-02-06T12:48:47.255Z,4.82
2023-02-06T12:51:56.955Z,5.70
2023-02-06T12:55:06.733Z,5.00
2023-02-06T12:58:25.288Z,5.28
2023-02-06T13:01:40.422Z,5.15
2023-02-06T13:04:49.900Z,4.32
2023-02-06T13:07:55.833Z,5.40
2023-02-06T13:11:06.763Z,5.35
2023-02-06T13:14:20.150Z,4.80
2023-02-06T13:17:26.679Z,4.82
2023-02-06T13:20:34.591Z,4.30
2023-02-06T13:23:51.821Z,4.63
2023-02-06T13:27:12.129Z,4.93
2023-02-06T13:30:41.399Z,5.13
2023-02-06T13:33:51.616Z,4.55
2023-02-06T13:36:59.510Z,5.10
2023-02-06T13:40:21.168Z,5.15
2023-02-06T13:43:31.774Z,4.55
2023-02-06T13:46:48.360Z,4.43
2023-02-06T13:50:14.841Z,4.97
2023-02-06T13:53:35.140Z,4.30
2023-02-06T13:56:47.511Z,5.30
2023-02-06T13:59:54.273Z,4.07
2023-02-06T14:03:07.379Z,4.57
2023-02-06T14:06:20.901Z,4.65
2023-02-06T14:09:32.889Z,4.65
2023-02-06T14:12:47.365Z,4.75
2023-02-06T14:15:56.517Z,4.85
2023-02-06T14:19:04.634Z,5.35
2023-02-06T14:25:20.319Z,4.63
2023-02-06T14:28:34.096Z,5.07
2023-02-06T14:31:46.505Z,4.90
2023-02-06T14:34:58.608Z,4.70
2023-02-06T14:38:23.493Z,5.55
2023-02-06T14:41:31.344Z,4.68
2023-02-06T14:44:39.839Z,5.30
2023-02-06T14:47:45.728Z,4.93
2023-02-06T14:50:54.459Z,5.13
2023-02-06T14:54:02.449Z,4.95
2023-02-06T14:57:10.119Z,5.05
2023-02-06T15:00:20.914Z,5.07
2023-02-06T15:03:27.159Z,4.28
2023-02-06T15:06:35.696Z,4.50
2023-02-06T15:09:44.384Z,5.65
2023-02-06T15:12:54.559Z,6.80
2023-02-06T15:16:04.887Z,5.70
2023-02-06T15:19:14.223Z,5.05
2023-02-06T15:22:21.747Z,5.13
2023-02-06T15:25:33.576Z,6.15
2023-02-06T15:28:39.887Z,5.38
2023-02-06T15:31:49.817Z,6.35
2023-02-06T15:34:55.217Z,5.60
2023-02-06T15:38:06.082Z,5.95
2023-02-06T15:41:11.826Z,5.70
2023-02-06T15:44:22.945Z,6.28
2023-02-06T15:47:30.795Z,6.15
2023-02-06T15:50:36.625Z,5.40
2023-02-06T15:53:42.905Z,6.30
2023-02-06T15:56:51.470Z,5.65
2023-02-06T15:59:57.379Z,6.07
2023-02-06T16:03:07.955Z,5.80
2023-02-06T16:06:17.712Z,6.07
2023-02-06T16:09:23.793Z,6.82
2023-02-06T16:12:29.031Z,6.22
2023-02-06T16:15:35.660Z,6.93
2023-02-06T16:18:46.992Z,7.50
2023-02-06T16:22:06.420Z,7.47
2023-02-06T16:25:22.933Z,7.70
2023-02-06T16:28:29.464Z,6.85
2023-02-06T16:31:37.310Z,7.57
2023-02-06T16:34:46.143Z,8.27
2023-02-06T16:37:51.804Z,8.10
2023-02-06T16:40:57.324Z,8.20
2023-02-06T16:44:03.304Z,8.00
2023-02-06T16:47:09.485Z,8.05
2023-02-06T16:50:17.836Z,7.85
2023-02-06T16:56:28.617Z,8.50
2023-02-06T16:59:33.970Z,8.10
2023-02-06T17:02:39.332Z,8.55
2023-02-06T17:05:47.592Z,9.20
2023-02-06T17:08:53.800Z,8.60
2023-02-06T17:11:58.989Z,9.20
2023-02-06T17:15:22.940Z,9.52
2023-02-06T17:18:28.429Z,8.75
2023-02-06T17:21:36.524Z,8.55
2023-02-06T17:27:47.402Z,7.85
2023-02-06T17:30:52.698Z,9.38
2023-02-06T17:33:58.489Z,8.63
2023-02-06T17:37:08.277Z,8.90
2023-02-06T17:40:15.768Z,9.32
2023-02-06T17:43:21.098Z,9.27
2023-02-06T17:46:26.935Z,8.70
2023-02-06T17:49:32.809Z,10.13
2023-02-06T17:52:41.376Z,8.77
2023-02-06T17:58:51.406Z,8.15
2023-02-06T18:01:57.021Z,8.50
2023-02-06T18:05:03.872Z,8.88
2023-02-06T18:08:12.297Z,8.40
2023-02-06T18:11:18.384Z,8.27
2023-02-06T18:14:24.071Z,7.57
2023-02-06T18:17:29.178Z,8.23
2023-02-06T18:20:35.020Z,7.45
2023-02-06T18:23:42.881Z,7.32
2023-02-06T18:26:48.451Z,7.43
2023-02-06T18:29:55.404Z,7.88
2023-02-06T18:33:01.210Z,7.85
2023-02-06T18:36:07.628Z,8.27
2023-02-06T18:39:16.151Z,7.22
2023-02-06T18:42:33.876Z,7.70
2023-02-06T18:45:40.309Z,7.50
2023-02-06T18:48:45.681Z,7.43
2023-02-06T18:51:51.425Z,8.80
2023-02-06T18:54:59.496Z,9.27
2023-02-06T19:01:14.436Z,7.95
2023-02-06T19:04:20.312Z,7.88
2023-02-06T19:07:26.030Z,8.48
2023-02-06T19:10:34.083Z,7.35
2023-02-06T19:13:40.845Z,7.00
2023-02-06T19:16:48.317Z,7.45
2023-02-06T19:19:54.034Z,7.82
2023-02-06T19:22:59.664Z,7.93
2023-02-06T19:26:08.432Z,6.35
2023-02-06T19:29:15.115Z,6.78
2023-02-06T19:32:20.722Z,7.13
2023-02-06T19:35:26.429Z,7.22
2023-02-06T19:38:31.857Z,7.18
2023-02-06T19:41:39.841Z,8.10
2023-02-06T19:44:46.038Z,7.15
2023-02-06T19:47:51.793Z,7.72
2023-02-06T19:50:56.845Z,7.28
2023-02-06T19:54:02.965Z,7.40
2023-02-06T19:57:11.215Z,6.88
2023-02-06T20:00:17.371Z,7.68
2023-02-06T20:03:23.328Z,6.70
2023-02-06T20:06:29.720Z,7.95
2023-02-06T20:09:35.508Z,7.57
2023-02-06T20:12:43.614Z,7.20
2023-02-06T20:15:48.821Z,7.55
2023-02-06T20:18:54.543Z,7.20
2023-02-06T20:22:01.563Z,7.28
2023-02-06T20:25:06.746Z,7.63
2023-02-06T20:28:14.735Z,7.18
2023-02-06T20:31:20.383Z,7.30
2023-02-06T20:34:27.098Z,7.28
2023-02-06T20:37:32.706Z,7.82
2023-02-06T20:40:40.890Z,7.60
2023-02-06T20:43:48.797Z,8.43
2023-02-06T20:46:54.610Z,7.95
2023-02-06T20:50:00.720Z,8.25
2023-02-06T20:53:06.317Z,7.45
2023-02-06T20:56:12.572Z,6.93
2023-02-06T20:59:21.376Z,6.63
2023-02-06T21:02:28.430Z,6.20
2023-02-06T21:05:34.046Z,7.53
2023-02-06T21:08:39.111Z,7.32
2023-02-06T21:11:45.414Z,6.95
2023-02-06T21:14:53.364Z,7.50
2023-02-06T21:17:59.000Z,8.45
2023-02-06T21:21:09.658Z,7.05
2023-02-06T21:24:15.068Z,7.82
2023-02-06T21:27:20.447Z,7.00
2023-02-06T21:30:28.339Z,6.30
2023-02-06T21:33:34.069Z,6.63
2023-02-06T21:36:41.047Z,6.63
2023-02-06T21:39:46.482Z,6.65
2023-02-06T21:42:52.288Z,7.18
2023-02-06T21:46:00.533Z,6.00
2023-02-06T21:49:06.832Z,6.22
2023-02-06T21:52:12.459Z,6.70
2023-02-06T21:55:17.982Z,6.28
2023-02-06T21:58:23.488Z,6.63
2023-02-06T22:01:33.439Z,5.93
2023-02-06T22:04:39.694Z,6.45
2023-02-06T22:07:45.296Z,7.13
2023-02-06T22:10:50.908Z,6.63
2023-02-06T22:13:56.642Z,6.70
2023-02-06T22:17:04.673Z,5.95
2023-02-06T22:20:10.415Z,6.03
2023-02-06T22:23:16.169Z,5.35
2023-02-06T22:26:23.334Z,5.75
2023-02-06T22:29:30.489Z,6.47
2023-02-06T22:32:39.307Z,6.30
2023-02-06T22:35:44.646Z,5.82
2023-02-06T22:38:50.272Z,5.43
2023-02-06T22:41:55.398Z,6.18
2023-02-06T22:45:00.555Z,6.53
2023-02-06T22:48:08.874Z,6.40
2023-02-06T22:51:14.336Z,7.07
2023-02-06T22:54:20.243Z,6.28
2023-02-06T22:57:25.794Z,6.10
2023-02-06T23:00:31.389Z,6.80
2023-02-06T23:03:39.424Z,7.22
2023-02-06T23:06:45.029Z,7.03
2023-02-06T23:09:50.292Z,6.75
2023-02-06T23:12:55.784Z,6.75
2023-02-06T23:16:01.959Z,7.57
2023-02-06T23:19:10.643Z,6.80
2023-02-06T23:22:16.090Z,7.43
2023-02-06T23:25:21.753Z,7.38
2023-02-06T23:28:28.809Z,7.57
2023-02-06T23:31:34.907Z,7.97
2023-02-06T23:34:42.889Z,7.30
2023-02-06T23:37:48.109Z,7.80
2023-02-06T23:40:53.506Z,8.13
2023-02-06T23:44:00.083Z,6.80
2023-02-06T23:47:05.276Z,7.10
2023-02-06T23:50:13.694Z,6.97
2023-02-06T23:53:18.858Z,5.72
2023-02-06T23:56:25.855Z,6.28
2023-02-06T23:59:31.062Z,6.32
